createdAt,value
2018-05-05T00:00:16.757Z,12.45
2018-05-05T00:01:16.774Z,12.38
2018-05-05T00:02:16.821Z,12.52
2018-05-05T00:03:16.814Z,12.44
2018-05-05T00:04:16.837Z,12.41
2018-05-05T00:05:16.863Z,12.47
2018-05-05T00:06:16.870Z,12.41
2018-05-05T00:07:16.891Z,12.51
2018-05-05T00:08:16.913Z,12.41
2018-05-05T00:09:16.929Z,12.41
2018-05-05T00:10:16.951Z,12.38
2018-05-05T00:11:16.971Z,12.33
2018-05-05T00:12:16.987Z,12.40
2018-05-05T00:13:17.010Z,12.31
2018-05-05T00:14:17.025Z,12.29
2018-05-05T00:15:17.041Z,12.31
2018-05-05T00:16:17.063Z,12.20
2018-05-05T00:17:17.087Z,12.28
2018-05-05T00:18:17.108Z,12.28
2018-05-05T00:19:17.121Z,12.26
2018-05-05T00:20:17.143Z,12.25
2018-05-05T00:21:17.161Z,12.22
2018-05-05T00:22:17.182Z,12.31
2018-05-05T00:23:17.203Z,12.25
2018-05-05T00:24:17.214Z,12.28
2018-05-05T00:25:17.236Z,12.34
2018-05-05T00:26:17.258Z,12.28
2018-05-05T00:27:17.271Z,12.23
2018-05-05T00:28:17.299Z,12.20
2018-05-05T00:29:17.315Z,12.22
2018-05-05T00:30:17.331Z,12.13
2018-05-05T00:31:17.349Z,12.11
2018-05-05T00:32:17.367Z,12.15
2018-05-05T00:33:17.395Z,12.10
2018-05-05T00:34:17.407Z,12.10
2018-05-05T00:35:17.422Z,12.07
2018-05-05T00:36:17.451Z,12.07
2018-05-05T00:37:17.467Z,11.98
2018-05-05T00:38:17.492Z,11.98
2018-05-05T00:39:17.500Z,12.01
2018-05-05T00:40:17.528Z,11.95
2018-05-05T00:41:17.544Z,11.98
2018-05-05T00:42:17.560Z,11.88
2018-05-05T00:43:17.584Z,11.94
2018-05-05T00:44:17.593Z,11.86
2018-05-05T00:45:17.619Z,11.88
2018-05-05T00:46:17.644Z,11.85
2018-05-05T00:47:17.650Z,11.75
2018-05-05T00:48:17.674Z,11.81
2018-05-05T00:49:17.690Z,11.79
2018-05-05T00:50:17.717Z,11.88
2018-05-05T00:51:17.736Z,11.82
2018-05-05T00:52:17.752Z,11.86
2018-05-05T00:53:17.774Z,11.81
2018-05-05T00:54:17.784Z,11.82
2018-05-05T00:55:17.806Z,11.79
2018-05-05T00:56:17.827Z,11.70
2018-05-05T00:57:17.846Z,11.75
2018-05-05T00:58:17.866Z,11.70
2018-05-05T00:59:17.884Z,11.71
2018-05-05T01:00:17.901Z,11.70
2018-05-05T01:01:17.925Z,11.61
2018-05-05T01:02:17.939Z,11.59
2018-05-05T01:03:17.959Z,11.51
2018-05-05T01:04:17.980Z,11.57
2018-05-05T01:05:17.996Z,11.53
2018-05-05T01:06:18.013Z,11.57
2018-05-05T01:07:18.035Z,11.57
2018-05-05T01:08:18.053Z,11.51
2018-05-05T01:09:18.069Z,11.45
2018-05-05T01:10:18.097Z,11.51
2018-05-05T01:11:18.106Z,11.52
2018-05-05T01:12:18.133Z,11.51
2018-05-05T01:13:18.150Z,11.56
2018-05-05T01:14:18.165Z,11.48
2018-05-05T01:15:18.189Z,11.60
2018-05-05T01:16:18.200Z,11.61
2018-05-05T01:17:18.223Z,11.53
2018-05-05T01:18:18.245Z,11.52
2018-05-05T01:19:18.264Z,11.53
2018-05-05T01:20:18.286Z,11.56
2018-05-05T01:21:18.300Z,11.51
2018-05-05T01:22:18.325Z,11.51
2018-05-05T01:23:18.336Z,11.52
2018-05-05T01:24:18.357Z,11.56
2018-05-05T01:25:18.382Z,11.48
2018-05-05T01:26:18.390Z,11.52
2018-05-05T01:27:18.416Z,11.56
2018-05-05T01:28:18.427Z,11.46
2018-05-05T01:29:18.458Z,11.49
2018-05-05T01:30:18.465Z,11.51
2018-05-05T01:31:18.481Z,11.48
2018-05-05T01:32:18.509Z,11.48
2018-05-05T01:33:18.519Z,11.48
2018-05-05T01:34:18.548Z,11.45
2018-05-05T01:35:18.562Z,11.45
2018-05-05T01:36:18.577Z,11.41
2018-05-05T01:37:18.597Z,11.39
2018-05-05T01:38:18.614Z,11.34
2018-05-05T01:39:18.637Z,11.41
2018-05-05T01:40:18.660Z,11.38
2018-05-05T01:41:18.670Z,11.41
2018-05-05T01:42:18.699Z,11.39
2018-05-05T01:43:18.707Z,11.38
2018-05-05T01:44:18.736Z,11.38
2018-05-05T01:45:18.749Z,11.46
2018-05-05T01:46:18.771Z,11.51
2018-05-05T01:47:18.791Z,11.43
2018-05-05T01:48:18.800Z,11.48
2018-05-05T01:49:18.828Z,11.46
2018-05-05T01:50:18.842Z,11.51
2018-05-05T01:51:18.863Z,11.43
2018-05-05T01:52:18.878Z,11.48
2018-05-05T01:53:18.900Z,11.51
2018-05-05T01:54:18.921Z,11.51
2018-05-05T01:55:18.940Z,11.52
2018-05-05T01:56:18.955Z,11.46
2018-05-05T01:57:18.977Z,11.48
2018-05-05T01:58:18.987Z,11.45
2018-05-05T01:59:19.008Z,11.43
2018-05-05T02:00:19.029Z,11.52
2018-05-05T02:01:19.052Z,11.41
2018-05-05T02:02:19.061Z,11.51
2018-05-05T02:03:19.086Z,11.43
2018-05-05T02:04:19.101Z,11.43
2018-05-05T02:05:19.116Z,11.39
2018-05-05T02:06:19.148Z,11.39
2018-05-05T02:07:19.156Z,11.31
2018-05-05T02:08:19.178Z,11.31
2018-05-05T02:09:19.193Z,11.31
2018-05-05T02:10:19.211Z,11.28
2018-05-05T02:11:19.228Z,11.33
2018-05-05T02:12:19.250Z,11.28
2018-05-05T02:13:19.266Z,11.24
2018-05-05T02:14:19.293Z,11.24
2018-05-05T02:15:19.308Z,11.21
2018-05-05T02:16:19.324Z,11.15
2018-05-05T02:17:19.340Z,11.10
2018-05-05T02:18:19.367Z,11.09
2018-05-05T02:19:19.380Z,11.10
2018-05-05T02:20:19.402Z,11.12
2018-05-05T02:21:19.423Z,11.15
2018-05-05T02:22:19.433Z,11.15
2018-05-05T02:23:19.455Z,11.12
2018-05-05T02:24:19.479Z,11.13
2018-05-05T02:25:19.492Z,11.10
2018-05-05T02:26:19.516Z,11.21
2018-05-05T02:27:19.535Z,11.16
2018-05-05T02:28:19.543Z,11.15
2018-05-05T02:29:19.572Z,11.10
2018-05-05T02:30:19.589Z,11.10
2018-05-05T02:31:19.606Z,10.97
2018-05-05T02:32:19.626Z,11.00
2018-05-05T02:33:19.641Z,11.00
2018-05-05T02:34:19.663Z,11.00
2018-05-05T02:35:19.681Z,11.00
2018-05-05T02:36:19.697Z,11.03
2018-05-05T02:37:19.713Z,11.02
2018-05-05T02:38:19.741Z,11.02
2018-05-05T02:39:19.751Z,11.03
2018-05-05T02:40:19.773Z,11.05
2018-05-05T02:41:19.796Z,10.97
2018-05-05T02:42:19.805Z,11.02
2018-05-05T02:43:19.828Z,11.05
2018-05-05T02:44:19.845Z,11.00
2018-05-05T02:45:19.862Z,10.94
2018-05-05T02:46:19.891Z,11.00
2018-05-05T02:47:19.903Z,10.92
2018-05-05T02:48:19.920Z,10.95
2018-05-05T02:49:19.941Z,11.02
2018-05-05T02:50:19.955Z,10.98
2018-05-05T02:51:19.974Z,10.91
2018-05-05T02:52:19.995Z,10.88
2018-05-05T02:53:20.018Z,10.84
2018-05-05T02:54:20.027Z,10.73
2018-05-05T02:55:20.046Z,10.84
2018-05-05T02:56:20.082Z,10.85
2018-05-05T02:57:20.087Z,10.76
2018-05-05T02:58:20.103Z,10.80
2018-05-05T02:59:20.123Z,10.72
2018-05-05T03:00:20.138Z,10.77
2018-05-05T03:01:20.158Z,10.79
2018-05-05T03:02:20.189Z,10.76
2018-05-05T03:03:20.195Z,10.79
2018-05-05T03:04:20.219Z,10.73
2018-05-05T03:05:20.239Z,10.72
2018-05-05T03:06:20.250Z,10.66
2018-05-05T03:07:20.273Z,10.63
2018-05-05T03:08:20.291Z,10.69
2018-05-05T03:09:20.309Z,10.66
2018-05-05T03:10:20.331Z,10.70
2018-05-05T03:11:20.364Z,10.66
2018-05-05T03:12:20.359Z,10.61
2018-05-05T03:13:20.386Z,10.59
2018-05-05T03:14:20.402Z,10.63
2018-05-05T03:15:20.420Z,10.54
2018-05-05T03:16:20.441Z,10.69
2018-05-05T03:17:20.457Z,10.66
2018-05-05T03:18:20.472Z,10.63
2018-05-05T03:19:20.492Z,10.65
2018-05-05T03:20:20.508Z,10.63
2018-05-05T03:21:20.529Z,10.59
2018-05-05T03:22:20.546Z,10.61
2018-05-05T03:23:20.562Z,10.61
2018-05-05T03:24:20.586Z,10.55
2018-05-05T03:25:20.607Z,10.54
2018-05-05T03:26:20.617Z,10.57
2018-05-05T03:27:20.633Z,10.57
2018-05-05T03:28:20.664Z,10.54
2018-05-05T03:29:20.671Z,10.42
2018-05-05T03:30:20.700Z,10.42
2018-05-05T03:31:20.717Z,10.38
2018-05-05T03:32:20.727Z,10.47
2018-05-05T03:33:20.753Z,10.36
2018-05-05T03:34:20.764Z,10.41
2018-05-05T03:35:20.784Z,10.38
2018-05-05T03:36:20.806Z,10.26
2018-05-05T03:37:20.823Z,10.31
2018-05-05T03:38:20.841Z,10.46
2018-05-05T03:39:20.859Z,10.36
2018-05-05T03:40:20.876Z,10.41
2018-05-05T03:41:20.896Z,10.38
2018-05-05T03:42:20.912Z,10.26
2018-05-05T03:43:20.930Z,10.23
2018-05-05T03:44:20.955Z,10.35
2018-05-05T03:45:20.973Z,10.36
2018-05-05T03:46:20.984Z,10.28
2018-05-05T03:47:21.008Z,10.26
2018-05-05T03:48:21.021Z,10.28
2018-05-05T03:49:21.037Z,10.26
2018-05-05T03:50:21.066Z,10.20
2018-05-05T03:51:21.074Z,10.17
2018-05-05T03:52:21.101Z,10.23
2018-05-05T03:53:21.117Z,10.07
2018-05-05T03:54:21.132Z,10.03
2018-05-05T03:55:21.155Z,10.05
2018-05-05T03:56:21.165Z,10.13
2018-05-05T03:57:21.208Z,10.13
2018-05-05T03:58:21.210Z,10.17
2018-05-05T03:59:21.220Z,10.14
2018-05-05T04:00:21.247Z,10.15
2018-05-05T04:01:21.257Z,10.14
2018-05-05T04:02:21.278Z,10.15
2018-05-05T04:03:21.295Z,10.23
2018-05-05T04:04:21.312Z,10.14
2018-05-05T04:05:21.334Z,10.15
2018-05-05T04:06:21.357Z,10.17
2018-05-05T04:07:21.375Z,10.17
2018-05-05T04:08:21.384Z,10.21
2018-05-05T04:09:21.405Z,10.25
2018-05-05T04:10:21.427Z,10.21
2018-05-05T04:11:21.439Z,10.26
2018-05-05T04:12:21.467Z,10.25
2018-05-05T04:13:21.485Z,10.21
2018-05-05T04:14:21.495Z,10.18
2018-05-05T04:15:21.519Z,10.26
2018-05-05T04:16:21.529Z,10.23
2018-05-05T04:17:21.556Z,10.32
2018-05-05T04:18:21.571Z,10.25
2018-05-05T04:19:21.590Z,10.23
2018-05-05T04:20:21.611Z,10.29
2018-05-05T04:21:21.626Z,10.32
2018-05-05T04:22:21.643Z,10.23
2018-05-05T04:23:21.657Z,10.35
2018-05-05T04:24:21.685Z,10.28
2018-05-05T04:25:21.698Z,10.32
2018-05-05T04:26:21.715Z,10.38
2018-05-05T04:27:21.737Z,10.33
2018-05-05T04:28:21.750Z,10.23
2018-05-05T04:29:21.769Z,10.35
2018-05-05T04:30:21.789Z,10.39
2018-05-05T04:31:21.804Z,10.41
2018-05-05T04:32:21.820Z,10.31
2018-05-05T04:33:21.848Z,10.38
2018-05-05T04:34:21.866Z,10.41
2018-05-05T04:35:21.880Z,10.35
2018-05-05T04:36:21.896Z,10.47
2018-05-05T04:37:21.917Z,10.39
2018-05-05T04:38:21.934Z,10.39
2018-05-05T04:39:21.947Z,10.44
2018-05-05T04:40:21.977Z,10.38
2018-05-05T04:41:21.993Z,10.33
2018-05-05T04:42:22.006Z,10.41
2018-05-05T04:43:22.028Z,10.46
2018-05-05T04:44:22.039Z,10.49
2018-05-05T04:45:22.061Z,10.52
2018-05-05T04:46:22.082Z,10.52
2018-05-05T04:47:22.094Z,10.57
2018-05-05T04:48:22.121Z,10.58
2018-05-05T04:49:22.147Z,10.57
2018-05-05T04:50:22.151Z,10.55
2018-05-05T04:51:22.195Z,10.65
2018-05-05T04:52:22.184Z,10.63
2018-05-05T04:53:22.208Z,10.65
2018-05-05T04:54:22.230Z,10.66
2018-05-05T04:55:22.248Z,10.67
2018-05-05T04:56:22.258Z,10.77
2018-05-05T04:57:22.351Z,10.72
2018-05-05T04:58:22.305Z,10.85
2018-05-05T04:59:22.312Z,10.76
2018-05-05T05:00:22.340Z,10.88
2018-05-05T05:01:22.356Z,10.92
2018-05-05T05:02:22.374Z,10.90
2018-05-05T05:03:22.395Z,10.94
2018-05-05T05:04:22.414Z,10.91
2018-05-05T05:05:22.431Z,11.02
2018-05-05T05:06:22.448Z,10.97
2018-05-05T05:07:22.459Z,10.98
2018-05-05T05:08:22.481Z,11.08
2018-05-05T05:09:22.502Z,11.15
2018-05-05T05:10:22.516Z,11.21
2018-05-05T05:11:22.538Z,11.18
2018-05-05T05:12:22.554Z,11.21
2018-05-05T05:13:22.575Z,11.18
2018-05-05T05:14:22.590Z,11.18
2018-05-05T05:15:22.609Z,11.21
2018-05-05T05:16:22.629Z,11.28
2018-05-05T05:17:22.644Z,11.26
2018-05-05T05:18:22.667Z,11.41
2018-05-05T05:19:22.683Z,11.39
2018-05-05T05:20:22.700Z,11.45
2018-05-05T05:21:22.715Z,11.51
2018-05-05T05:22:22.736Z,11.53
2018-05-05T05:23:22.761Z,11.63
2018-05-05T05:24:22.777Z,11.75
2018-05-05T05:25:22.792Z,12.04
2018-05-05T05:26:22.815Z,12.47
2018-05-05T05:27:22.828Z,12.58
2018-05-05T05:28:22.850Z,12.51
2018-05-05T05:29:22.868Z,12.25
2018-05-05T05:30:22.887Z,12.16
2018-05-05T05:31:22.905Z,12.07
2018-05-05T05:32:22.921Z,12.34
2018-05-05T05:33:22.942Z,12.61
2018-05-05T05:34:22.963Z,12.78
2018-05-05T05:35:22.977Z,13.06
2018-05-05T05:36:22.993Z,13.39
2018-05-05T05:37:23.024Z,13.53
2018-05-05T05:38:23.032Z,13.68
2018-05-05T05:39:23.071Z,13.94
2018-05-05T05:40:23.072Z,14.03
2018-05-05T05:41:23.090Z,14.03
2018-05-05T05:42:23.108Z,14.15
2018-05-05T05:43:23.127Z,14.06
2018-05-05T05:44:23.154Z,14.05
2018-05-05T05:45:23.165Z,14.02
2018-05-05T05:46:23.194Z,14.13
2018-05-05T05:47:23.214Z,14.28
2018-05-05T05:48:23.223Z,14.31
2018-05-05T05:49:23.255Z,14.31
2018-05-05T05:50:23.264Z,14.30
2018-05-05T05:51:23.289Z,14.42
2018-05-05T05:52:23.313Z,14.61
2018-05-05T05:53:23.330Z,14.57
2018-05-05T05:54:23.346Z,14.70
2018-05-05T05:55:23.365Z,14.90
2018-05-05T05:56:23.391Z,15.01
2018-05-05T05:57:23.409Z,14.98
2018-05-05T05:58:23.438Z,15.08
2018-05-05T05:59:23.451Z,15.12
2018-05-05T06:00:23.473Z,15.10
2018-05-05T06:01:23.497Z,15.23
2018-05-05T06:02:23.510Z,15.18
2018-05-05T06:03:23.538Z,15.47
2018-05-05T06:04:23.558Z,15.44
2018-05-05T06:05:23.636Z,15.60
2018-05-05T06:06:23.602Z,15.58
2018-05-05T06:07:23.616Z,15.78
2018-05-05T06:08:23.641Z,15.91
2018-05-05T06:09:23.667Z,15.86
2018-05-05T06:10:23.684Z,15.86
2018-05-05T06:11:23.698Z,15.99
2018-05-05T06:12:23.724Z,15.96
2018-05-05T06:13:23.748Z,15.86
2018-05-05T06:14:23.766Z,15.84
2018-05-05T06:15:23.785Z,15.84
2018-05-05T06:16:23.816Z,15.93
2018-05-05T06:17:23.835Z,15.99
2018-05-05T06:18:23.857Z,16.22
2018-05-05T06:19:23.883Z,16.13
2018-05-05T06:20:23.894Z,16.16
2018-05-05T06:21:23.920Z,16.44
2018-05-05T06:22:23.950Z,16.33
2018-05-05T06:23:23.967Z,16.52
2018-05-05T06:24:24.000Z,16.63
2018-05-05T06:25:24.009Z,16.73
2018-05-05T06:26:24.033Z,16.73
2018-05-05T06:27:24.065Z,16.81
2018-05-05T06:28:24.081Z,16.84
2018-05-05T06:29:24.100Z,17.00
2018-05-05T06:30:24.126Z,16.77
2018-05-05T06:31:24.150Z,16.95
2018-05-05T06:32:24.164Z,17.02
2018-05-05T06:33:24.199Z,16.95
2018-05-05T06:34:24.211Z,17.18
2018-05-05T06:35:24.232Z,17.27
2018-05-05T06:36:24.265Z,17.45
2018-05-05T06:37:24.282Z,17.31
2018-05-05T06:38:24.315Z,17.66
2018-05-05T06:39:24.334Z,17.39
2018-05-05T06:40:24.354Z,17.63
2018-05-05T06:41:24.375Z,17.76
2018-05-05T06:42:24.398Z,17.77
2018-05-05T06:43:24.425Z,17.88
2018-05-05T06:44:24.451Z,18.11
2018-05-05T06:45:24.466Z,18.14
2018-05-05T06:46:24.495Z,18.20
2018-05-05T06:47:24.519Z,18.11
2018-05-05T06:48:24.543Z,18.20
2018-05-05T06:49:24.563Z,18.29
2018-05-05T06:50:24.593Z,18.36
2018-05-05T06:51:24.611Z,18.59
2018-05-05T06:52:24.639Z,18.61
2018-05-05T06:53:24.667Z,18.61
2018-05-05T06:54:24.681Z,18.81
2018-05-05T06:55:24.711Z,18.65
2018-05-05T06:56:24.734Z,18.65
2018-05-05T06:57:24.761Z,18.75
2018-05-05T06:58:24.792Z,18.93
2018-05-05T06:59:24.822Z,18.97
2018-05-05T07:00:24.834Z,18.89
2018-05-05T07:01:24.865Z,19.12
2018-05-05T07:02:24.879Z,19.23
2018-05-05T07:03:24.912Z,19.15
2018-05-05T07:04:24.933Z,18.99
2018-05-05T07:05:24.962Z,19.15
2018-05-05T07:06:24.978Z,19.19
2018-05-05T07:07:25.009Z,19.55
2018-05-05T07:08:25.034Z,19.72
2018-05-05T07:09:25.063Z,19.89
2018-05-05T07:10:25.089Z,20.04
2018-05-05T07:11:25.106Z,20.20
2018-05-05T07:12:25.136Z,20.20
2018-05-05T07:13:25.161Z,20.18
2018-05-05T07:14:25.188Z,20.38
2018-05-05T07:15:25.293Z,20.10
2018-05-05T07:16:25.239Z,19.95
2018-05-05T07:17:25.343Z,20.12
2018-05-05T07:18:25.288Z,20.22
2018-05-05T07:19:25.313Z,19.90
2018-05-05T07:20:25.358Z,19.92
2018-05-05T07:21:25.365Z,19.89
2018-05-05T07:22:25.400Z,19.89
2018-05-05T07:23:25.430Z,20.27
2018-05-05T07:24:25.526Z,20.27
2018-05-05T07:25:25.479Z,20.16
2018-05-05T07:26:25.501Z,20.30
2018-05-05T07:27:25.523Z,20.26
2018-05-05T07:28:25.558Z,20.60
2018-05-05T07:29:25.585Z,20.56
2018-05-05T07:30:25.607Z,20.44
2018-05-05T07:31:25.640Z,20.49
2018-05-05T07:32:25.657Z,20.49
2018-05-05T07:33:25.687Z,20.16
2018-05-05T07:34:25.722Z,20.26
2018-05-05T07:35:25.741Z,20.37
2018-05-05T07:36:25.771Z,20.44
2018-05-05T07:37:25.807Z,20.74
2018-05-05T07:38:25.823Z,21.27
2018-05-05T07:39:25.855Z,21.67
2018-05-05T07:40:25.877Z,21.74
2018-05-05T07:41:25.901Z,21.56
2018-05-05T07:42:25.938Z,21.46
2018-05-05T07:43:25.966Z,21.37
2018-05-05T07:44:25.993Z,21.38
2018-05-05T07:45:26.015Z,21.00
2018-05-05T07:46:26.045Z,21.04
2018-05-05T07:47:26.067Z,21.19
2018-05-05T07:48:26.103Z,21.41
2018-05-05T07:49:26.131Z,21.41
2018-05-05T07:50:26.159Z,21.48
2018-05-05T07:51:26.177Z,21.49
2018-05-05T07:52:26.216Z,21.77
2018-05-05T07:53:26.239Z,22.30
2018-05-05T07:54:26.265Z,22.22
2018-05-05T07:55:26.298Z,22.48
2018-05-05T07:56:26.319Z,22.61
2018-05-05T07:57:26.355Z,22.71
2018-05-05T07:58:26.374Z,22.54
2018-05-05T07:59:26.403Z,22.73
2018-05-05T08:00:26.433Z,22.57
2018-05-05T08:01:26.464Z,22.70
2018-05-05T08:02:26.498Z,22.96
2018-05-05T08:03:26.524Z,23.25
2018-05-05T08:04:26.547Z,23.35
2018-05-05T08:05:26.582Z,23.24
2018-05-05T08:06:26.601Z,23.06
2018-05-05T08:07:26.638Z,22.96
2018-05-05T08:08:26.702Z,22.84
2018-05-05T08:09:27.652Z,23.00
2018-05-05T08:10:27.143Z,22.99
2018-05-05T08:11:27.227Z,23.00
2018-05-05T08:12:27.164Z,23.29
2018-05-05T08:13:26.864Z,23.44
2018-05-05T08:14:27.418Z,23.57
2018-05-05T08:15:27.075Z,23.41
2018-05-05T08:16:27.588Z,23.48
2018-05-05T08:17:26.925Z,23.29
2018-05-05T08:18:27.191Z,23.10
2018-05-05T08:19:27.540Z,23.42
2018-05-05T08:20:27.011Z,23.35
2018-05-05T08:21:27.152Z,23.25
2018-05-05T08:22:27.137Z,23.42
2018-05-05T08:23:27.498Z,23.38
2018-05-05T08:24:27.176Z,23.34
2018-05-05T08:25:27.748Z,23.35
2018-05-05T08:26:27.690Z,23.16
2018-05-05T08:27:27.255Z,23.37
2018-05-05T08:28:27.893Z,23.48
2018-05-05T08:29:27.706Z,23.53
2018-05-05T08:30:27.776Z,23.70
2018-05-05T08:31:27.893Z,23.78
2018-05-05T08:32:27.756Z,23.57
2018-05-05T08:33:27.436Z,23.35
2018-05-05T08:34:28.183Z,23.42
2018-05-05T08:35:27.553Z,23.25
2018-05-05T08:36:27.903Z,23.25
2018-05-05T08:37:27.978Z,23.77
2018-05-05T08:38:27.553Z,24.42
2018-05-05T08:39:28.103Z,24.30
2018-05-05T08:40:27.799Z,24.32
2018-05-05T08:41:28.117Z,24.45
2018-05-05T08:42:27.666Z,24.49
2018-05-05T08:43:28.105Z,24.66
2018-05-05T08:44:27.895Z,24.09
2018-05-05T08:45:27.929Z,23.99
2018-05-05T08:46:27.914Z,23.90
2018-05-05T08:47:27.816Z,23.48
2018-05-05T08:48:27.868Z,23.74
2018-05-05T08:49:27.979Z,24.00
2018-05-05T08:50:27.945Z,24.21
2018-05-05T08:51:27.935Z,24.19
2018-05-05T08:52:27.993Z,24.09
2018-05-05T08:53:28.192Z,24.55
2018-05-05T08:54:28.108Z,25.05
2018-05-05T08:55:28.441Z,24.64
2018-05-05T08:56:28.559Z,24.82
2018-05-05T08:57:28.594Z,25.15
2018-05-05T08:58:28.162Z,25.08
2018-05-05T08:59:28.602Z,24.92
2018-05-05T09:00:28.298Z,24.97
2018-05-05T09:01:28.799Z,24.82
2018-05-05T09:02:28.346Z,24.52
2018-05-05T09:03:28.297Z,24.36
2018-05-05T09:04:28.391Z,24.24
2018-05-05T09:05:28.474Z,23.93
2018-05-05T09:06:28.427Z,24.02
2018-05-05T09:07:28.719Z,23.56
2018-05-05T09:08:28.536Z,23.53
2018-05-05T09:09:28.785Z,23.79
2018-05-05T09:10:28.649Z,23.62
2018-05-05T09:11:28.552Z,23.47
2018-05-05T09:12:28.596Z,24.04
2018-05-05T09:13:28.642Z,24.36
2018-05-05T09:14:28.678Z,24.46
2018-05-05T09:15:28.712Z,24.80
2018-05-05T09:16:28.703Z,24.97
2018-05-05T09:17:28.728Z,24.94
2018-05-05T09:18:28.781Z,25.08
2018-05-05T09:19:28.774Z,24.89
2018-05-05T09:20:28.847Z,25.27
2018-05-05T09:21:28.896Z,25.11
2018-05-05T09:22:28.929Z,24.86
2018-05-05T09:23:28.919Z,24.96
2018-05-05T09:24:28.951Z,25.26
2018-05-05T09:25:29.651Z,25.51
2018-05-05T09:26:29.336Z,25.49
2018-05-05T09:27:29.459Z,25.01
2018-05-05T09:28:29.075Z,24.48
2018-05-05T09:29:29.438Z,24.37
2018-05-05T09:30:29.502Z,23.92
2018-05-05T09:31:29.567Z,23.77
2018-05-05T09:32:29.534Z,23.92
2018-05-05T09:33:29.300Z,23.40
2018-05-05T09:34:29.708Z,23.60
2018-05-05T09:35:29.778Z,23.85
2018-05-05T09:36:29.280Z,23.60
2018-05-05T09:37:29.308Z,23.60
2018-05-05T09:38:29.347Z,23.57
2018-05-05T09:39:29.370Z,24.11
2018-05-05T09:40:29.406Z,24.21
2018-05-05T09:41:29.435Z,24.70
2018-05-05T09:42:29.458Z,25.15
2018-05-05T09:43:29.487Z,25.54
2018-05-05T09:44:29.521Z,25.22
2018-05-05T09:45:29.555Z,25.02
2018-05-05T09:46:29.577Z,24.90
2018-05-05T09:47:29.612Z,24.85
2018-05-05T09:48:29.645Z,24.75
2018-05-05T09:49:29.664Z,24.64
2018-05-05T09:50:29.701Z,25.30
2018-05-05T09:51:29.727Z,26.12
2018-05-05T09:52:29.749Z,26.20
2018-05-05T09:53:29.788Z,25.44
2018-05-05T09:54:29.811Z,25.32
2018-05-05T09:55:29.838Z,25.56
2018-05-05T09:56:29.877Z,25.32
2018-05-05T09:57:29.899Z,25.97
2018-05-05T09:58:29.943Z,25.69
2018-05-05T09:59:29.965Z,25.93
2018-05-05T10:00:29.996Z,26.45
2018-05-05T10:01:30.023Z,26.74
2018-05-05T10:02:30.050Z,27.11
2018-05-05T10:03:30.081Z,27.01
2018-05-05T10:04:30.112Z,27.15
2018-05-05T10:05:30.140Z,26.78
2018-05-05T10:06:30.167Z,27.24
2018-05-05T10:07:30.197Z,26.20
2018-05-05T10:08:30.236Z,26.35
2018-05-05T10:09:30.258Z,26.04
2018-05-05T10:10:30.297Z,26.12
2018-05-05T10:11:30.328Z,26.03
2018-05-05T10:12:30.349Z,25.94
2018-05-05T10:13:30.388Z,25.79
2018-05-05T10:14:30.411Z,26.01
2018-05-05T10:15:30.444Z,26.22
2018-05-05T10:16:30.472Z,26.16
2018-05-05T10:17:30.505Z,26.52
2018-05-05T10:18:30.540Z,27.08
2018-05-05T10:19:30.570Z,27.08
2018-05-05T10:20:30.596Z,27.00
2018-05-05T10:21:30.630Z,26.91
2018-05-05T10:22:30.667Z,26.96
2018-05-05T10:23:30.687Z,27.21
2018-05-05T10:24:30.722Z,26.94
2018-05-05T10:25:30.757Z,27.00
2018-05-05T10:26:30.779Z,26.78
2018-05-05T10:27:30.815Z,26.53
2018-05-05T10:28:30.841Z,26.42
2018-05-05T10:29:30.871Z,26.97
2018-05-05T10:30:30.912Z,26.82
2018-05-05T10:31:30.940Z,27.11
2018-05-05T10:32:30.971Z,26.67
2018-05-05T10:33:31.004Z,25.99
2018-05-05T10:34:31.029Z,26.06
2018-05-05T10:35:31.070Z,25.78
2018-05-05T10:36:31.089Z,26.22
2018-05-05T10:37:31.124Z,26.84
2018-05-05T10:38:31.156Z,26.79
2018-05-05T10:39:31.180Z,27.06
2018-05-05T10:40:31.221Z,27.31
2018-05-05T10:41:31.249Z,26.94
2018-05-05T10:42:31.277Z,26.84
2018-05-05T10:43:31.314Z,27.08
2018-05-05T10:44:31.388Z,26.67
2018-05-05T10:45:31.374Z,27.08
2018-05-05T10:46:31.404Z,27.13
2018-05-05T10:47:31.431Z,27.18
2018-05-05T10:48:31.468Z,27.05
2018-05-05T10:49:31.502Z,26.97
2018-05-05T10:50:31.528Z,27.06
2018-05-05T10:51:31.559Z,26.79
2018-05-05T10:52:31.592Z,26.86
2018-05-05T10:53:31.615Z,26.76
2018-05-05T10:54:31.657Z,26.68
2018-05-05T10:55:31.693Z,26.53
2018-05-05T10:56:31.717Z,26.59
2018-05-05T10:57:31.743Z,26.63
2018-05-05T10:58:31.779Z,26.56
2018-05-05T10:59:31.802Z,26.61
2018-05-05T11:00:31.843Z,26.61
2018-05-05T11:01:31.958Z,26.60
2018-05-05T11:02:31.899Z,26.50
2018-05-05T11:03:31.931Z,27.08
2018-05-05T11:04:31.968Z,27.19
2018-05-05T11:05:31.989Z,27.11
2018-05-05T11:06:32.029Z,27.13
2018-05-05T11:07:32.055Z,26.82
2018-05-05T11:08:32.159Z,27.11
2018-05-05T11:09:32.123Z,26.93
2018-05-05T11:10:32.150Z,26.87
2018-05-05T11:11:32.179Z,27.06
2018-05-05T11:12:32.215Z,27.49
2018-05-05T11:13:32.237Z,27.79
2018-05-05T11:14:32.280Z,27.80
2018-05-05T11:15:32.311Z,27.69
2018-05-05T11:16:32.330Z,27.62
2018-05-05T11:17:32.370Z,27.81
2018-05-05T11:18:32.396Z,27.59
2018-05-05T11:19:32.433Z,27.72
2018-05-05T11:20:32.461Z,27.91
2018-05-05T11:21:32.490Z,27.57
2018-05-05T11:22:32.528Z,27.61
2018-05-05T11:23:32.548Z,27.81
2018-05-05T11:24:32.590Z,27.48
2018-05-05T11:25:32.617Z,26.91
2018-05-05T11:26:32.646Z,27.18
2018-05-05T11:27:32.679Z,27.66
2018-05-05T11:28:32.911Z,27.69
2018-05-05T11:29:32.801Z,27.69
2018-05-05T11:30:32.910Z,27.62
2018-05-05T11:31:32.833Z,27.57
2018-05-05T11:32:32.862Z,27.69
2018-05-05T11:33:32.913Z,27.98
2018-05-05T11:34:32.899Z,27.61
2018-05-05T11:35:32.931Z,27.36
2018-05-05T11:36:32.966Z,27.80
2018-05-05T11:37:32.988Z,28.17
2018-05-05T11:38:33.029Z,27.84
2018-05-05T11:39:33.054Z,27.31
2018-05-05T11:40:33.088Z,27.41
2018-05-05T11:41:33.125Z,27.81
2018-05-05T11:42:33.154Z,27.98
2018-05-05T11:43:33.182Z,28.18
2018-05-05T11:44:33.210Z,27.80
2018-05-05T11:45:33.244Z,27.87
2018-05-05T11:46:33.275Z,27.72
2018-05-05T11:47:33.304Z,27.49
2018-05-05T11:48:33.339Z,27.61
2018-05-05T11:49:33.367Z,27.51
2018-05-05T11:50:33.405Z,27.96
2018-05-05T11:51:33.429Z,27.36
2018-05-05T11:52:33.458Z,27.61
2018-05-05T11:53:33.489Z,27.43
2018-05-05T11:54:33.524Z,27.33
2018-05-05T11:55:33.556Z,27.66
2018-05-05T11:56:33.586Z,27.89
2018-05-05T11:57:33.613Z,28.14
2018-05-05T11:58:33.656Z,28.17
2018-05-05T11:59:33.690Z,27.83
2018-05-05T12:00:33.707Z,27.94
2018-05-05T12:01:33.826Z,27.91
2018-05-05T12:02:33.770Z,28.33
2018-05-05T12:03:33.804Z,28.39
2018-05-05T12:04:33.839Z,28.18
2018-05-05T12:05:33.863Z,28.03
2018-05-05T12:06:33.912Z,27.99
2018-05-05T12:07:33.930Z,27.74
2018-05-05T12:08:33.969Z,27.27
2018-05-05T12:09:33.992Z,27.13
2018-05-05T12:10:34.028Z,26.93
2018-05-05T12:11:34.059Z,26.99
2018-05-05T12:12:34.086Z,27.26
2018-05-05T12:13:34.114Z,27.18
2018-05-05T12:14:34.145Z,27.19
2018-05-05T12:15:34.183Z,27.74
2018-05-05T12:16:34.206Z,28.14
2018-05-05T12:17:34.241Z,28.36
2018-05-05T12:18:34.269Z,28.43
2018-05-05T12:19:34.301Z,27.93
2018-05-05T12:20:34.332Z,28.11
2018-05-05T12:21:34.361Z,28.36
2018-05-05T12:22:34.397Z,28.31
2018-05-05T12:23:34.428Z,28.20
2018-05-05T12:24:34.456Z,28.49
2018-05-05T12:25:34.492Z,28.55
2018-05-05T12:26:34.511Z,28.60
2018-05-05T12:27:34.542Z,28.51
2018-05-05T12:28:34.581Z,28.30
2018-05-05T12:29:34.671Z,28.14
2018-05-05T12:30:34.639Z,27.91
2018-05-05T12:31:34.674Z,27.27
2018-05-05T12:32:34.698Z,27.09
2018-05-05T12:33:34.730Z,27.57
2018-05-05T12:34:34.763Z,27.74
2018-05-05T12:35:34.787Z,27.23
2018-05-05T12:36:34.828Z,27.00
2018-05-05T12:37:34.857Z,27.13
2018-05-05T12:38:34.882Z,27.21
2018-05-05T12:39:34.915Z,27.24
2018-05-05T12:40:34.950Z,27.09
2018-05-05T12:41:34.971Z,27.12
2018-05-05T12:42:35.007Z,27.13
2018-05-05T12:43:35.037Z,27.27
2018-05-05T12:44:35.145Z,27.59
2018-05-05T12:45:35.095Z,27.71
2018-05-05T12:46:35.128Z,27.55
2018-05-05T12:47:35.155Z,27.74
2018-05-05T12:48:35.195Z,27.53
2018-05-05T12:49:35.211Z,27.75
2018-05-05T12:50:35.249Z,27.52
2018-05-05T12:51:35.280Z,27.43
2018-05-05T12:52:35.303Z,27.71